AUA2PJ LOWW-EDDM
Flight info
| Callsign | AUA2PJ |
|---|---|
| Flight time | N/A |
| Altitude | 28000 |
| Route | SOVIL2B SOVIL DCT SITNI DCT BAGSI DCT MATIG DCT AMADI Q113 NAPSA NAPSA1B |
| Aircraft | A320/M-SDE3FGHIRWY/LB1 |
Departure
| Time | 2026-05-06 19:44 |
|---|---|
| Airport | Vienna International Airport (LOWW) |
Arrival
| Time | N/A |
|---|---|
| Airport | Munich Airport (EDDM) |
| Time | Latitude | Longitude | Altitude | Speed | Heading |
|---|---|---|---|---|---|
| 2026-05-06 18:44 | 48.11806 | 16.57038 | 624 ft | 0 kts | 206° |
| 2026-05-06 18:45 | 48.11809 | 16.57040 | 623 ft | 0 kts | 206° |
| 2026-05-06 19:15 | 48.11825 | 16.57051 | 625 ft | 4 kts | 203° |
| 2026-05-06 19:16 | 48.11850 | 16.57065 | 627 ft | 4 kts | 192° |
| 2026-05-06 19:16 | 48.11875 | 16.57066 | 622 ft | 4 kts | 149° |
| 2026-05-06 19:16 | 48.11883 | 16.57057 | 613 ft | 0 kts | 116° |
| 2026-05-06 19:19 | 48.11858 | 16.57134 | 622 ft | 8 kts | 111° |
| 2026-05-06 19:19 | 48.11851 | 16.57215 | 610 ft | 7 kts | 99° |
| 2026-05-06 19:19 | 48.11834 | 16.57282 | 610 ft | 6 kts | 114° |
| 2026-05-06 19:20 | 48.11814 | 16.57334 | 622 ft | 5 kts | 129° |
| 2026-05-06 19:20 | 48.11785 | 16.57361 | 620 ft | 4 kts | 160° |
| 2026-05-06 19:20 | 48.11758 | 16.57369 | 615 ft | 3 kts | 169° |
| 2026-05-06 19:20 | 48.11730 | 16.57380 | 622 ft | 8 kts | 166° |
| 2026-05-06 19:21 | 48.11676 | 16.57401 | 612 ft | 8 kts | 165° |
| 2026-05-06 19:21 | 48.11629 | 16.57421 | 617 ft | 7 kts | 164° |
| 2026-05-06 19:21 | 48.11587 | 16.57438 | 622 ft | 6 kts | 164° |
| 2026-05-06 19:21 | 48.11513 | 16.57460 | 616 ft | 18 kts | 179° |
| 2026-05-06 19:22 | 48.11390 | 16.57390 | 610 ft | 20 kts | 206° |
| 2026-05-06 19:22 | 48.11258 | 16.57294 | 615 ft | 22 kts | 206° |
| 2026-05-06 19:22 | 48.11221 | 16.57222 | 615 ft | 8 kts | 291° |
| 2026-05-06 19:22 | 48.11259 | 16.57112 | 619 ft | 16 kts | 298° |
| 2026-05-06 19:23 | 48.11320 | 16.56933 | 621 ft | 22 kts | 295° |
| 2026-05-06 19:23 | 48.11391 | 16.56712 | 626 ft | 24 kts | 296° |
| 2026-05-06 19:23 | 48.11468 | 16.56476 | 617 ft | 26 kts | 296° |
| 2026-05-06 19:23 | 48.11551 | 16.56225 | 622 ft | 28 kts | 296° |
| 2026-05-06 19:24 | 48.11638 | 16.55958 | 621 ft | 29 kts | 296° |
| 2026-05-06 19:24 | 48.11728 | 16.55678 | 618 ft | 30 kts | 296° |
| 2026-05-06 19:24 | 48.11823 | 16.55389 | 619 ft | 31 kts | 296° |
| 2026-05-06 19:24 | 48.11899 | 16.55155 | 623 ft | 24 kts | 296° |
| 2026-05-06 19:25 | 48.11974 | 16.54926 | 614 ft | 25 kts | 296° |
| 2026-05-06 19:25 | 48.12053 | 16.54682 | 617 ft | 26 kts | 296° |
| 2026-05-06 19:25 | 48.12127 | 16.54452 | 618 ft | 18 kts | 296° |
| 2026-05-06 19:25 | 48.12170 | 16.54318 | 619 ft | 15 kts | 296° |
| 2026-05-06 19:26 | 48.12181 | 16.54285 | 625 ft | 0 kts | 296° |
| 2026-05-06 19:26 | 48.12194 | 16.54246 | 621 ft | 6 kts | 296° |
| 2026-05-06 19:26 | 48.12207 | 16.54207 | 619 ft | 8 kts | 296° |
| 2026-05-06 19:27 | 48.12264 | 16.54033 | 611 ft | 15 kts | 296° |
| 2026-05-06 19:27 | 48.12303 | 16.53913 | 614 ft | 10 kts | 296° |
| 2026-05-06 19:27 | 48.12332 | 16.53823 | 626 ft | 9 kts | 296° |
| 2026-05-06 19:27 | 48.12356 | 16.53749 | 614 ft | 7 kts | 296° |
| 2026-05-06 19:28 | 48.12357 | 16.53746 | 613 ft | 1 kts | 296° |
| 2026-05-06 19:28 | 48.12377 | 16.53685 | 612 ft | 13 kts | 296° |
| 2026-05-06 19:28 | 48.12420 | 16.53556 | 613 ft | 13 kts | 297° |
| 2026-05-06 19:28 | 48.12431 | 16.53500 | 610 ft | 0 kts | 269° |
| 2026-05-06 19:29 | 48.12431 | 16.53499 | 610 ft | 1 kts | 269° |
| 2026-05-06 19:29 | 48.12429 | 16.53490 | 610 ft | 0 kts | 261° |
| 2026-05-06 19:36 | 48.12424 | 16.53470 | 610 ft | 6 kts | 241° |
| 2026-05-06 19:36 | 48.12396 | 16.53438 | 613 ft | 0 kts | 209° |
| 2026-05-06 19:37 | 48.12395 | 16.53437 | 613 ft | 0 kts | 209° |
| 2026-05-06 19:40 | 48.12380 | 16.53425 | 617 ft | 5 kts | 207° |
| 2026-05-06 19:41 | 48.12312 | 16.53377 | 622 ft | 9 kts | 205° |
| 2026-05-06 19:41 | 48.12263 | 16.53400 | 621 ft | 7 kts | 127° |
| 2026-05-06 19:41 | 48.12251 | 16.53431 | 613 ft | 0 kts | 116° |
| 2026-05-06 19:43 | 48.12247 | 16.53443 | 610 ft | 9 kts | 116° |
| 2026-05-06 19:43 | 48.12074 | 16.53970 | 621 ft | 102 kts | 116° |
| 2026-05-06 19:44 | 48.11653 | 16.55259 | 617 ft | 172 kts | 116° |
| 2026-05-06 19:44 | 48.11099 | 16.56980 | 1166 ft | 191 kts | 115° |
| 2026-05-06 19:44 | 48.10479 | 16.58833 | 1906 ft | 203 kts | 117° |
| 2026-05-06 19:44 | 48.09828 | 16.60772 | 2502 ft | 213 kts | 116° |
| 2026-05-06 19:45 | 48.09169 | 16.62775 | 3126 ft | 215 kts | 116° |
| 2026-05-06 19:45 | 48.08509 | 16.64787 | 3683 ft | 218 kts | 116° |
| 2026-05-06 19:45 | 48.07832 | 16.66840 | 4372 ft | 222 kts | 116° |
| 2026-05-06 19:45 | 48.07158 | 16.68875 | 5423 ft | 215 kts | 118° |
| 2026-05-06 19:46 | 48.06240 | 16.70482 | 5813 ft | 198 kts | 152° |
| 2026-05-06 19:46 | 48.04893 | 16.71011 | 5604 ft | 216 kts | 181° |
| 2026-05-06 19:46 | 48.03313 | 16.70541 | 5934 ft | 245 kts | 199° |
| 2026-05-06 19:46 | 48.01592 | 16.69802 | 6426 ft | 268 kts | 194° |
| 2026-05-06 19:47 | 47.99766 | 16.69181 | 7226 ft | 276 kts | 193° |
| 2026-05-06 19:47 | 47.97986 | 16.68087 | 8109 ft | 281 kts | 216° |
| 2026-05-06 19:47 | 47.96657 | 16.65939 | 9044 ft | 285 kts | 241° |
| 2026-05-06 19:47 | 47.96068 | 16.63125 | 9942 ft | 288 kts | 266° |
| 2026-05-06 19:48 | 47.96190 | 16.60109 | 10579 ft | 302 kts | 276° |
| 2026-05-06 19:48 | 47.96435 | 16.56864 | 10945 ft | 324 kts | 276° |
| 2026-05-06 19:48 | 47.96700 | 16.53460 | 11624 ft | 333 kts | 276° |
| 2026-05-06 19:48 | 47.96967 | 16.50006 | 12436 ft | 338 kts | 276° |
| 2026-05-06 19:49 | 47.97230 | 16.46502 | 13247 ft | 342 kts | 276° |
| 2026-05-06 19:49 | 47.97485 | 16.43027 | 13996 ft | 346 kts | 276° |
| 2026-05-06 19:49 | 47.97641 | 16.40865 | 14429 ft | 349 kts | 276° |
| 2026-05-06 19:49 | 47.98004 | 16.35808 | 15419 ft | 354 kts | 276° |
| 2026-05-06 19:50 | 47.98267 | 16.32126 | 16151 ft | 358 kts | 276° |
| 2026-05-06 19:50 | 47.98528 | 16.28474 | 16845 ft | 362 kts | 276° |
| 2026-05-06 19:50 | 47.98801 | 16.24648 | 17562 ft | 366 kts | 276° |
| 2026-05-06 19:50 | 47.99073 | 16.20843 | 18236 ft | 370 kts | 276° |
| 2026-05-06 19:51 | 47.99386 | 16.17121 | 18860 ft | 371 kts | 275° |
| 2026-05-06 19:51 | 47.99721 | 16.13320 | 19624 ft | 369 kts | 272° |
| 2026-05-06 19:51 | 47.99965 | 16.09499 | 20284 ft | 371 kts | 271° |
| 2026-05-06 19:51 | 48.00175 | 16.05653 | 20906 ft | 373 kts | 270° |
| 2026-05-06 19:52 | 48.00389 | 16.01775 | 21520 ft | 376 kts | 270° |
| 2026-05-06 19:52 | 48.00623 | 15.97870 | 22086 ft | 380 kts | 271° |
| 2026-05-06 19:52 | 48.00876 | 15.93928 | 22668 ft | 383 kts | 271° |
| 2026-05-06 19:52 | 48.01142 | 15.89954 | 23252 ft | 386 kts | 271° |
| 2026-05-06 19:53 | 48.01417 | 15.85954 | 23769 ft | 388 kts | 271° |
| 2026-05-06 19:53 | 48.01695 | 15.81934 | 24281 ft | 390 kts | 271° |
| 2026-05-06 19:53 | 48.01973 | 15.77899 | 24782 ft | 391 kts | 271° |
| 2026-05-06 19:53 | 48.02248 | 15.73855 | 25292 ft | 393 kts | 271° |
| 2026-05-06 19:54 | 48.02522 | 15.69790 | 25779 ft | 393 kts | 271° |
| 2026-05-06 19:54 | 48.02798 | 15.65748 | 25924 ft | 389 kts | 271° |
| 2026-05-06 19:54 | 48.03071 | 15.61748 | 26049 ft | 385 kts | 271° |
| 2026-05-06 19:54 | 48.03338 | 15.57782 | 26175 ft | 379 kts | 271° |
| 2026-05-06 19:55 | 48.03593 | 15.53966 | 26288 ft | 365 kts | 271° |
| 2026-05-06 19:55 | 48.03838 | 15.50188 | 26416 ft | 366 kts | 271° |
| 2026-05-06 19:55 | 48.04079 | 15.46406 | 26575 ft | 366 kts | 270° |
| 2026-05-06 19:55 | 48.04319 | 15.42601 | 26696 ft | 365 kts | 270° |
| 2026-05-06 19:56 | 48.04556 | 15.38828 | 26844 ft | 370 kts | 270° |
| 2026-05-06 19:56 | 48.04750 | 15.34940 | 26967 ft | 381 kts | 268° |
| 2026-05-06 19:56 | 48.04849 | 15.30932 | 27108 ft | 390 kts | 267° |
| 2026-05-06 19:56 | 48.04893 | 15.26856 | 27434 ft | 394 kts | 266° |
| 2026-05-06 19:57 | 48.04920 | 15.22745 | 27722 ft | 396 kts | 266° |
| 2026-05-06 19:57 | 48.04952 | 15.18672 | 27771 ft | 385 kts | 266° |
| 2026-05-06 19:57 | 48.04995 | 15.14783 | 27771 ft | 376 kts | 266° |
| 2026-05-06 19:57 | 48.05049 | 15.10843 | 27769 ft | 373 kts | 267° |
| 2026-05-06 19:58 | 48.05108 | 15.06968 | 27770 ft | 373 kts | 267° |
| 2026-05-06 19:58 | 48.05165 | 15.03102 | 27797 ft | 371 kts | 266° |
| 2026-05-06 19:58 | 48.05223 | 14.99257 | 27774 ft | 369 kts | 266° |
| 2026-05-06 19:58 | 48.05277 | 14.95436 | 27771 ft | 368 kts | 266° |
| 2026-05-06 19:59 | 48.05328 | 14.91613 | 27772 ft | 367 kts | 266° |
| 2026-05-06 19:59 | 48.05375 | 14.87797 | 27772 ft | 367 kts | 266° |
| 2026-05-06 19:59 | 48.05421 | 14.83984 | 27770 ft | 367 kts | 266° |
| 2026-05-06 19:59 | 48.05463 | 14.80222 | 27771 ft | 367 kts | 266° |
| 2026-05-06 20:00 | 48.05497 | 14.76408 | 27770 ft | 367 kts | 265° |
| 2026-05-06 20:00 | 48.05525 | 14.72601 | 27770 ft | 367 kts | 265° |
| 2026-05-06 20:00 | 48.05551 | 14.68784 | 27771 ft | 367 kts | 265° |
| 2026-05-06 20:00 | 48.05574 | 14.64980 | 27773 ft | 367 kts | 265° |
| 2026-05-06 20:01 | 48.05597 | 14.61165 | 27782 ft | 367 kts | 265° |
| 2026-05-06 20:01 | 48.05623 | 14.57358 | 27813 ft | 366 kts | 265° |
| 2026-05-06 20:01 | 48.05648 | 14.53553 | 27816 ft | 366 kts | 265° |
| 2026-05-06 20:01 | 48.05674 | 14.49758 | 27791 ft | 364 kts | 265° |
| 2026-05-06 20:02 | 48.05701 | 14.46003 | 27321 ft | 359 kts | 265° |
| 2026-05-06 20:02 | 48.05725 | 14.42284 | 26744 ft | 357 kts | 265° |
| 2026-05-06 20:02 | 48.05747 | 14.38536 | 26158 ft | 355 kts | 265° |
| 2026-05-06 20:02 | 48.05764 | 14.34903 | 25609 ft | 354 kts | 265° |
| 2026-05-06 20:03 | 48.05780 | 14.31236 | 25060 ft | 352 kts | 265° |
| 2026-05-06 20:03 | 48.05793 | 14.27544 | 24502 ft | 351 kts | 265° |
| 2026-05-06 20:03 | 48.05806 | 14.23897 | 23965 ft | 350 kts | 265° |
| 2026-05-06 20:03 | 48.05819 | 14.20271 | 23448 ft | 349 kts | 265° |
| 2026-05-06 20:04 | 48.05831 | 14.16656 | 23050 ft | 348 kts | 265° |
| 2026-05-06 20:04 | 48.05841 | 14.13086 | 22709 ft | 347 kts | 265° |
| 2026-05-06 20:04 | 48.05851 | 14.09491 | 22358 ft | 345 kts | 265° |
| 2026-05-06 20:04 | 48.05860 | 14.05912 | 22003 ft | 344 kts | 265° |
| 2026-05-06 20:05 | 48.05869 | 14.02347 | 21661 ft | 342 kts | 265° |
| 2026-05-06 20:05 | 48.05877 | 13.98752 | 21318 ft | 340 kts | 265° |
| 2026-05-06 20:05 | 48.05883 | 13.95270 | 20993 ft | 339 kts | 265° |
| 2026-05-06 20:05 | 48.05886 | 13.91761 | 20661 ft | 337 kts | 265° |
| 2026-05-06 20:06 | 48.05888 | 13.88221 | 20361 ft | 336 kts | 265° |
| 2026-05-06 20:06 | 48.05889 | 13.84729 | 20034 ft | 335 kts | 265° |
| 2026-05-06 20:06 | 48.05888 | 13.81310 | 19718 ft | 333 kts | 265° |
| 2026-05-06 20:06 | 48.05885 | 13.77854 | 19403 ft | 332 kts | 265° |
| 2026-05-06 20:07 | 48.05884 | 13.74413 | 19088 ft | 330 kts | 265° |
| 2026-05-06 20:07 | 48.05882 | 13.70980 | 18812 ft | 331 kts | 265° |
| 2026-05-06 20:07 | 48.05878 | 13.67537 | 18505 ft | 331 kts | 265° |
| 2026-05-06 20:07 | 48.05875 | 13.64185 | 18209 ft | 331 kts | 265° |
| 2026-05-06 20:08 | 48.05871 | 13.60754 | 17871 ft | 329 kts | 265° |
| 2026-05-06 20:08 | 48.05865 | 13.57313 | 17521 ft | 334 kts | 266° |
| 2026-05-06 20:08 | 48.05864 | 13.53870 | 17187 ft | 328 kts | 267° |
| 2026-05-06 20:08 | 48.05960 | 13.50476 | 16853 ft | 325 kts | 269° |
| 2026-05-06 20:09 | 48.06134 | 13.47122 | 16505 ft | 323 kts | 271° |
| 2026-05-06 20:09 | 48.06342 | 13.43785 | 16169 ft | 321 kts | 271° |
| 2026-05-06 20:09 | 48.06554 | 13.40474 | 15840 ft | 319 kts | 271° |
| 2026-05-06 20:09 | 48.06758 | 13.37190 | 15517 ft | 317 kts | 271° |
| 2026-05-06 20:10 | 48.06949 | 13.33926 | 15197 ft | 314 kts | 271° |
| 2026-05-06 20:10 | 48.07129 | 13.30680 | 14871 ft | 312 kts | 271° |
| 2026-05-06 20:10 | 48.07302 | 13.27456 | 14573 ft | 310 kts | 270° |
| 2026-05-06 20:10 | 48.07469 | 13.24251 | 14258 ft | 309 kts | 270° |
| 2026-05-06 20:11 | 48.07636 | 13.21065 | 13956 ft | 306 kts | 270° |
| 2026-05-06 20:11 | 48.07800 | 13.17895 | 13643 ft | 305 kts | 270° |
| 2026-05-06 20:11 | 48.07961 | 13.14748 | 13295 ft | 303 kts | 270° |
| 2026-05-06 20:11 | 48.08120 | 13.11614 | 12963 ft | 301 kts | 270° |
| 2026-05-06 20:12 | 48.08278 | 13.08503 | 12867 ft | 301 kts | 270° |
| 2026-05-06 20:12 | 48.08434 | 13.05422 | 12887 ft | 301 kts | 270° |
| 2026-05-06 20:12 | 48.08590 | 13.02300 | 12876 ft | 301 kts | 270° |
| 2026-05-06 20:12 | 48.08744 | 12.99171 | 12893 ft | 301 kts | 270° |
| 2026-05-06 20:13 | 48.08898 | 12.96050 | 12895 ft | 301 kts | 270° |
| 2026-05-06 20:13 | 48.09054 | 12.92927 | 12882 ft | 301 kts | 270° |
| 2026-05-06 20:13 | 48.09166 | 12.90814 | 12885 ft | 302 kts | 271° |
| 2026-05-06 20:13 | 48.09446 | 12.87239 | 12901 ft | 303 kts | 274° |
| 2026-05-06 20:14 | 48.09747 | 12.84129 | 12581 ft | 302 kts | 275° |
| 2026-05-06 20:14 | 48.10077 | 12.81024 | 12128 ft | 303 kts | 278° |
| 2026-05-06 20:14 | 48.10850 | 12.78078 | 11725 ft | 307 kts | 294° |
| 2026-05-06 20:14 | 48.11871 | 12.75277 | 11304 ft | 306 kts | 294° |
| 2026-05-06 20:15 | 48.12892 | 12.72504 | 10915 ft | 304 kts | 294° |
| 2026-05-06 20:15 | 48.13580 | 12.70642 | 10653 ft | 302 kts | 294° |
| 2026-05-06 20:15 | 48.14920 | 12.67010 | 10153 ft | 299 kts | 294° |
| 2026-05-06 20:15 | 48.15584 | 12.65203 | 9886 ft | 298 kts | 294° |
| 2026-05-06 20:16 | 48.16569 | 12.62525 | 9726 ft | 288 kts | 294° |
| 2026-05-06 20:16 | 48.17524 | 12.59932 | 9497 ft | 280 kts | 294° |
| 2026-05-06 20:16 | 48.18449 | 12.57407 | 9169 ft | 276 kts | 294° |
| 2026-05-06 20:16 | 48.19367 | 12.54895 | 8809 ft | 273 kts | 294° |
| 2026-05-06 20:17 | 48.20274 | 12.52414 | 8455 ft | 270 kts | 294° |
| 2026-05-06 20:17 | 48.21172 | 12.49961 | 8101 ft | 267 kts | 295° |
| 2026-05-06 20:17 | 48.22058 | 12.47534 | 7752 ft | 264 kts | 295° |
| 2026-05-06 20:17 | 48.22937 | 12.45127 | 7404 ft | 261 kts | 295° |
| 2026-05-06 20:18 | 48.23803 | 12.42749 | 7045 ft | 258 kts | 295° |
| 2026-05-06 20:18 | 48.24657 | 12.40397 | 6696 ft | 256 kts | 295° |
| 2026-05-06 20:18 | 48.25502 | 12.38071 | 6354 ft | 252 kts | 296° |
| 2026-05-06 20:18 | 48.26336 | 12.35769 | 5980 ft | 249 kts | 296° |
| 2026-05-06 20:19 | 48.27160 | 12.33500 | 5587 ft | 247 kts | 296° |
| 2026-05-06 20:19 | 48.27979 | 12.31246 | 5196 ft | 245 kts | 296° |
| 2026-05-06 20:19 | 48.28788 | 12.29023 | 4919 ft | 240 kts | 296° |
| 2026-05-06 20:19 | 48.29587 | 12.26820 | 4876 ft | 240 kts | 296° |
| 2026-05-06 20:20 | 48.30383 | 12.24618 | 4884 ft | 236 kts | 296° |
| 2026-05-06 20:20 | 48.31136 | 12.22537 | 4884 ft | 217 kts | 296° |
| 2026-05-06 20:20 | 48.31832 | 12.20618 | 4885 ft | 201 kts | 296° |
| 2026-05-06 20:20 | 48.32476 | 12.18837 | 4885 ft | 188 kts | 295° |
| 2026-05-06 20:21 | 48.33096 | 12.17117 | 4888 ft | 186 kts | 295° |
| 2026-05-06 20:21 | 48.33710 | 12.15405 | 4889 ft | 186 kts | 295° |
| 2026-05-06 20:21 | 48.34322 | 12.13695 | 4890 ft | 186 kts | 295° |
| 2026-05-06 20:21 | 48.34935 | 12.11984 | 4890 ft | 186 kts | 295° |
| 2026-05-06 20:22 | 48.35551 | 12.10273 | 4888 ft | 186 kts | 295° |
| 2026-05-06 20:22 | 48.36121 | 12.08583 | 4911 ft | 173 kts | 289° |
| 2026-05-06 20:22 | 48.36343 | 12.06929 | 4874 ft | 154 kts | 271° |
| 2026-05-06 20:22 | 48.36297 | 12.05374 | 4751 ft | 145 kts | 268° |
| 2026-05-06 20:23 | 48.36216 | 12.03902 | 4596 ft | 139 kts | 267° |
| 2026-05-06 20:23 | 48.36123 | 12.02475 | 4420 ft | 134 kts | 267° |
| 2026-05-06 20:23 | 48.36026 | 12.01098 | 4244 ft | 131 kts | 266° |
| 2026-05-06 20:23 | 48.35929 | 11.99755 | 4099 ft | 126 kts | 266° |
| 2026-05-06 20:24 | 48.35833 | 11.98446 | 3911 ft | 125 kts | 266° |
| 2026-05-06 20:24 | 48.35737 | 11.97144 | 3739 ft | 125 kts | 266° |
| 2026-05-06 20:24 | 48.35640 | 11.95849 | 3570 ft | 124 kts | 266° |
| 2026-05-06 20:24 | 48.35544 | 11.94557 | 3409 ft | 125 kts | 265° |
| 2026-05-06 20:25 | 48.35447 | 11.93266 | 3240 ft | 124 kts | 265° |
| 2026-05-06 20:25 | 48.35351 | 11.91984 | 3071 ft | 123 kts | 265° |
| 2026-05-06 20:25 | 48.35254 | 11.90703 | 2901 ft | 123 kts | 264° |
| 2026-05-06 20:25 | 48.35157 | 11.89417 | 2734 ft | 124 kts | 264° |
| 2026-05-06 20:26 | 48.35061 | 11.88140 | 2557 ft | 123 kts | 264° |
| 2026-05-06 20:26 | 48.34963 | 11.86853 | 2379 ft | 127 kts | 262° |
| 2026-05-06 20:26 | 48.34866 | 11.85564 | 2207 ft | 122 kts | 261° |
| 2026-05-06 20:26 | 48.34769 | 11.84291 | 2039 ft | 122 kts | 262° |
| 2026-05-06 20:27 | 48.34673 | 11.83027 | 1862 ft | 122 kts | 262° |
| 2026-05-06 20:27 | 48.34577 | 11.81772 | 1705 ft | 120 kts | 261° |
| 2026-05-06 20:27 | 48.34483 | 11.80527 | 1535 ft | 119 kts | 261° |
| 2026-05-06 20:27 | 48.34389 | 11.79337 | 1458 ft | 103 kts | 261° |